sensor_id;sensor_type;location;lat;lon;timestamp;temperature;humidity
13426;DHT22;6785;57.918;12.530;2022-09-16T00:00:23;10.30;99.90
13426;DHT22;6785;57.918;12.530;2022-09-16T00:02:51;10.20;99.90
13426;DHT22;6785;57.918;12.530;2022-09-16T00:05:18;10.30;99.90
13426;DHT22;6785;57.918;12.530;2022-09-16T00:07:46;10.30;99.90
13426;DHT22;6785;57.918;12.530;2022-09-16T00:10:14;10.20;99.90
13426;DHT22;6785;57.918;12.530;2022-09-16T00:12:41;10.20;99.90
13426;DHT22;6785;57.918;12.530;2022-09-16T00:15:11;10.20;99.90
13426;DHT22;6785;57.918;12.530;2022-09-16T00:17:38;10.20;99.90
13426;DHT22;6785;57.918;12.530;2022-09-16T00:20:05;10.20;99.90
13426;DHT22;6785;57.918;12.530;2022-09-16T00:22:33;10.20;99.90
13426;DHT22;6785;57.918;12.530;2022-09-16T00:25:00;10.20;99.90
13426;DHT22;6785;57.918;12.530;2022-09-16T00:27:28;10.10;99.90
13426;DHT22;6785;57.918;12.530;2022-09-16T00:30:03;10.10;99.90
13426;DHT22;6785;57.918;12.530;2022-09-16T00:32:30;10.10;99.90
13426;DHT22;6785;57.918;12.530;2022-09-16T00:34:57;10.10;99.90
13426;DHT22;6785;57.918;12.530;2022-09-16T00:37:23;10.10;99.90
13426;DHT22;6785;57.918;12.530;2022-09-16T00:39:51;10.10;99.90
13426;DHT22;6785;57.918;12.530;2022-09-16T00:42:18;10.10;99.90
13426;DHT22;6785;57.918;12.530;2022-09-16T00:44:56;10.10;99.90
13426;DHT22;6785;57.918;12.530;2022-09-16T00:47:28;10.10;99.90
13426;DHT22;6785;57.918;12.530;2022-09-16T00:52:55;10.00;99.90
13426;DHT22;6785;57.918;12.530;2022-09-16T00:55:26;10.00;99.90
13426;DHT22;6785;57.918;12.530;2022-09-16T00:57:58;10.00;99.90
13426;DHT22;6785;57.918;12.530;2022-09-16T01:00:28;10.00;99.90
13426;DHT22;6785;57.918;12.530;2022-09-16T01:02:55;10.00;99.90
13426;DHT22;6785;57.918;12.530;2022-09-16T01:05:23;10.00;99.90
13426;DHT22;6785;57.918;12.530;2022-09-16T01:07:53;9.90;99.90
13426;DHT22;6785;57.918;12.530;2022-09-16T01:10:53;9.90;99.90
13426;DHT22;6785;57.918;12.530;2022-09-16T01:13:20;9.80;99.90
13426;DHT22;6785;57.918;12.530;2022-09-16T01:15:56;9.90;99.90
13426;DHT22;6785;57.918;12.530;2022-09-16T01:21:42;9.80;99.90
13426;DHT22;6785;57.918;12.530;2022-09-16T01:24:48;9.80;99.90
13426;DHT22;6785;57.918;12.530;2022-09-16T01:27:43;9.80;99.90
13426;DHT22;6785;57.918;12.530;2022-09-16T01:30:39;9.90;99.90
13426;DHT22;6785;57.918;12.530;2022-09-16T01:33:16;9.90;99.90
13426;DHT22;6785;57.918;12.530;2022-09-16T01:35:56;9.90;99.90
13426;DHT22;6785;57.918;12.530;2022-09-16T01:38:51;9.90;99.90
13426;DHT22;6785;57.918;12.530;2022-09-16T01:41:25;10.00;99.90
13426;DHT22;6785;57.918;12.530;2022-09-16T01:43:58;10.00;99.90
13426;DHT22;6785;57.918;12.530;2022-09-16T01:46:34;10.10;99.90
13426;DHT22;6785;57.918;12.530;2022-09-16T01:49:16;10.20;99.90
13426;DHT22;6785;57.918;12.530;2022-09-16T01:51:50;10.20;99.90
13426;DHT22;6785;57.918;12.530;2022-09-16T01:54:23;10.30;99.90
13426;DHT22;6785;57.918;12.530;2022-09-16T01:56:56;10.40;99.90
13426;DHT22;6785;57.918;12.530;2022-09-16T01:59:30;10.30;99.90
13426;DHT22;6785;57.918;12.530;2022-09-16T02:02:04;10.20;99.90
13426;DHT22;6785;57.918;12.530;2022-09-16T02:04:36;10.10;99.90
13426;DHT22;6785;57.918;12.530;2022-09-16T02:07:07;10.10;99.90
13426;DHT22;6785;57.918;12.530;2022-09-16T02:13:13;10.00;99.90
13426;DHT22;6785;57.918;12.530;2022-09-16T02:15:43;10.00;99.90
13426;DHT22;6785;57.918;12.530;2022-09-16T02:18:16;10.00;99.90
13426;DHT22;6785;57.918;12.530;2022-09-16T02:20:47;9.90;99.90
13426;DHT22;6785;57.918;12.530;2022-09-16T02:23:19;10.00;99.90
13426;DHT22;6785;57.918;12.530;2022-09-16T02:25:49;10.00;99.90
13426;DHT22;6785;57.918;12.530;2022-09-16T02:28:19;10.10;99.90
13426;DHT22;6785;57.918;12.530;2022-09-16T02:30:50;10.00;99.90
13426;DHT22;6785;57.918;12.530;2022-09-16T02:33:19;9.90;99.90
13426;DHT22;6785;57.918;12.530;2022-09-16T02:35:50;9.90;99.90
13426;DHT22;6785;57.918;12.530;2022-09-16T02:38:21;9.80;99.90
13426;DHT22;6785;57.918;12.530;2022-09-16T02:40:51;9.80;99.90
13426;DHT22;6785;57.918;12.530;2022-09-16T02:43:19;9.80;99.90
13426;DHT22;6785;57.918;12.530;2022-09-16T02:45:58;9.80;99.90
13426;DHT22;6785;57.918;12.530;2022-09-16T02:48:42;9.80;99.90
13426;DHT22;6785;57.918;12.530;2022-09-16T02:51:21;9.80;99.90
13426;DHT22;6785;57.918;12.530;2022-09-16T02:53:52;9.90;99.90
13426;DHT22;6785;57.918;12.530;2022-09-16T02:56:23;9.90;99.90
13426;DHT22;6785;57.918;12.530;2022-09-16T02:58:52;10.00;99.90
13426;DHT22;6785;57.918;12.530;2022-09-16T03:01:21;10.00;99.90
13426;DHT22;6785;57.918;12.530;2022-09-16T03:03:50;10.10;99.90
13426;DHT22;6785;57.918;12.530;2022-09-16T03:06:21;10.00;99.90
13426;DHT22;6785;57.918;12.530;2022-09-16T03:08:49;10.10;99.90
13426;DHT22;6785;57.918;12.530;2022-09-16T03:11:40;10.10;99.90
13426;DHT22;6785;57.918;12.530;2022-09-16T03:14:28;10.00;99.90
13426;DHT22;6785;57.918;12.530;2022-09-16T03:17:10;10.00;99.90
13426;DHT22;6785;57.918;12.530;2022-09-16T03:19:51;10.00;99.90
13426;DHT22;6785;57.918;12.530;2022-09-16T03:22:29;10.00;99.90
13426;DHT22;6785;57.918;12.530;2022-09-16T03:25:04;10.00;99.90
13426;DHT22;6785;57.918;12.530;2022-09-16T03:27:37;10.00;99.90
13426;DHT22;6785;57.918;12.530;2022-09-16T03:30:09;10.00;99.90
13426;DHT22;6785;57.918;12.530;2022-09-16T03:32:40;10.00;99.90
13426;DHT22;6785;57.918;12.530;2022-09-16T03:35:18;10.00;99.90
13426;DHT22;6785;57.918;12.530;2022-09-16T03:37:46;10.10;99.90
13426;DHT22;6785;57.918;12.530;2022-09-16T03:40:16;10.00;99.90
13426;DHT22;6785;57.918;12.530;2022-09-16T03:42:44;10.00;99.90
13426;DHT22;6785;57.918;12.530;2022-09-16T03:45:14;10.00;99.90
13426;DHT22;6785;57.918;12.530;2022-09-16T03:47:42;9.90;99.90
13426;DHT22;6785;57.918;12.530;2022-09-16T03:50:09;9.90;99.90
13426;DHT22;6785;57.918;12.530;2022-09-16T03:52:37;10.00;99.90
13426;DHT22;6785;57.918;12.530;2022-09-16T03:55:05;9.80;99.90
13426;DHT22;6785;57.918;12.530;2022-09-16T03:57:32;9.90;99.90
13426;DHT22;6785;57.918;12.530;2022-09-16T03:59:59;9.80;99.90
13426;DHT22;6785;57.918;12.530;2022-09-16T04:02:26;9.90;99.90
13426;DHT22;6785;57.918;12.530;2022-09-16T04:04:53;9.90;99.90
13426;DHT22;6785;57.918;12.530;2022-09-16T04:07:19;9.90;99.90
13426;DHT22;6785;57.918;12.530;2022-09-16T04:09:48;9.80;99.90
13426;DHT22;6785;57.918;12.530;2022-09-16T04:12:14;9.80;99.90
13426;DHT22;6785;57.918;12.530;2022-09-16T04:14:41;9.70;99.90
13426;DHT22;6785;57.918;12.530;2022-09-16T04:17:08;9.70;99.90
13426;DHT22;6785;57.918;12.530;2022-09-16T04:19:35;9.60;99.90
13426;DHT22;6785;57.918;12.530;2022-09-16T04:22:02;9.60;99.90
13426;DHT22;6785;57.918;12.530;2022-09-16T04:24:29;9.50;99.90
13426;DHT22;6785;57.918;12.530;2022-09-16T04:26:57;9.50;99.90
13426;DHT22;6785;57.918;12.530;2022-09-16T04:29:24;9.50;99.90
13426;DHT22;6785;57.918;12.530;2022-09-16T04:31:51;9.40;99.90
13426;DHT22;6785;57.918;12.530;2022-09-16T04:34:18;9.40;99.90
13426;DHT22;6785;57.918;12.530;2022-09-16T04:36:45;9.40;99.90
13426;DHT22;6785;57.918;12.530;2022-09-16T04:39:12;9.30;99.90
13426;DHT22;6785;57.918;12.530;2022-09-16T04:41:39;9.30;99.90
13426;DHT22;6785;57.918;12.530;2022-09-16T04:44:09;9.30;99.90
13426;DHT22;6785;57.918;12.530;2022-09-16T04:46:39;9.30;99.90
13426;DHT22;6785;57.918;12.530;2022-09-16T04:49:06;9.30;99.90
13426;DHT22;6785;57.918;12.530;2022-09-16T04:51:33;9.20;99.90
13426;DHT22;6785;57.918;12.530;2022-09-16T04:54:00;9.20;99.90
13426;DHT22;6785;57.918;12.530;2022-09-16T04:56:28;9.30;99.90
13426;DHT22;6785;57.918;12.530;2022-09-16T04:58:59;9.20;99.90
13426;DHT22;6785;57.918;12.530;2022-09-16T05:01:29;9.20;99.90
13426;DHT22;6785;57.918;12.530;2022-09-16T05:03:58;9.20;99.90
13426;DHT22;6785;57.918;12.530;2022-09-16T05:06:27;9.20;99.90
13426;DHT22;6785;57.918;12.530;2022-09-16T05:08:55;9.20;99.90
13426;DHT22;6785;57.918;12.530;2022-09-16T05:11:24;9.20;99.90
13426;DHT22;6785;57.918;12.530;2022-09-16T05:13:52;9.20;99.90
13426;DHT22;6785;57.918;12.530;2022-09-16T05:16:20;9.20;99.90
13426;DHT22;6785;57.918;12.530;2022-09-16T05:18:52;9.20;99.90
13426;DHT22;6785;57.918;12.530;2022-09-16T05:21:21;9.10;99.90
13426;DHT22;6785;57.918;12.530;2022-09-16T05:23:48;9.20;99.90
13426;DHT22;6785;57.918;12.530;2022-09-16T05:26:17;9.20;99.90
13426;DHT22;6785;57.918;12.530;2022-09-16T05:28:45;9.20;99.90
13426;DHT22;6785;57.918;12.530;2022-09-16T05:31:13;9.30;99.90
13426;DHT22;6785;57.918;12.530;2022-09-16T05:33:43;9.30;99.90
13426;DHT22;6785;57.918;12.530;2022-09-16T05:36:13;9.30;99.90
13426;DHT22;6785;57.918;12.530;2022-09-16T05:38:41;9.30;99.90
13426;DHT22;6785;57.918;12.530;2022-09-16T05:41:08;9.30;99.90
13426;DHT22;6785;57.918;12.530;2022-09-16T05:43:35;9.30;99.90
13426;DHT22;6785;57.918;12.530;2022-09-16T05:46:03;9.50;99.90
13426;DHT22;6785;57.918;12.530;2022-09-16T05:48:30;9.70;99.90
13426;DHT22;6785;57.918;12.530;2022-09-16T05:50:59;9.80;99.90
13426;DHT22;6785;57.918;12.530;2022-09-16T05:53:28;9.90;99.90
13426;DHT22;6785;57.918;12.530;2022-09-16T05:55:57;10.00;99.90
13426;DHT22;6785;57.918;12.530;2022-09-16T05:58:25;10.00;99.90
13426;DHT22;6785;57.918;12.530;2022-09-16T06:00:57;10.10;99.90
13426;DHT22;6785;57.918;12.530;2022-09-16T06:03:24;10.10;99.90
13426;DHT22;6785;57.918;12.530;2022-09-16T06:05:52;10.20;99.90
13426;DHT22;6785;57.918;12.530;2022-09-16T06:08:24;10.20;99.90
13426;DHT22;6785;57.918;12.530;2022-09-16T06:10:52;10.30;99.90
13426;DHT22;6785;57.918;12.530;2022-09-16T06:13:28;10.30;99.90
13426;DHT22;6785;57.918;12.530;2022-09-16T06:15:56;10.40;99.90
13426;DHT22;6785;57.918;12.530;2022-09-16T06:18:27;10.40;99.90
13426;DHT22;6785;57.918;12.530;2022-09-16T06:20:54;10.40;99.90
13426;DHT22;6785;57.918;12.530;2022-09-16T06:23:22;10.40;99.90
13426;DHT22;6785;57.918;12.530;2022-09-16T06:25:59;10.40;99.90
13426;DHT22;6785;57.918;12.530;2022-09-16T06:28:26;10.50;99.90
13426;DHT22;6785;57.918;12.530;2022-09-16T06:31:00;10.50;99.90
13426;DHT22;6785;57.918;12.530;2022-09-16T06:33:27;10.60;99.90
13426;DHT22;6785;57.918;12.530;2022-09-16T06:35:54;10.70;99.90
13426;DHT22;6785;57.918;12.530;2022-09-16T06:38:23;10.70;99.90
13426;DHT22;6785;57.918;12.530;2022-09-16T06:40:50;10.70;99.90
13426;DHT22;6785;57.918;12.530;2022-09-16T06:43:18;10.70;99.90
13426;DHT22;6785;57.918;12.530;2022-09-16T06:45:45;10.80;99.90
13426;DHT22;6785;57.918;12.530;2022-09-16T06:48:12;10.80;99.90
13426;DHT22;6785;57.918;12.530;2022-09-16T06:50:39;10.90;99.90
13426;DHT22;6785;57.918;12.530;2022-09-16T06:53:06;10.90;99.90
13426;DHT22;6785;57.918;12.530;2022-09-16T06:55:33;10.90;99.90
13426;DHT22;6785;57.918;12.530;2022-09-16T06:58:00;11.10;99.90
13426;DHT22;6785;57.918;12.530;2022-09-16T07:00:29;11.10;99.90
13426;DHT22;6785;57.918;12.530;2022-09-16T07:02:56;11.30;99.90
13426;DHT22;6785;57.918;12.530;2022-09-16T07:05:23;11.30;99.90
13426;DHT22;6785;57.918;12.530;2022-09-16T07:07:50;11.40;99.90
13426;DHT22;6785;57.918;12.530;2022-09-16T07:10:17;11.60;99.90
13426;DHT22;6785;57.918;12.530;2022-09-16T07:12:44;11.90;99.90
13426;DHT22;6785;57.918;12.530;2022-09-16T07:15:11;12.10;99.90
13426;DHT22;6785;57.918;12.530;2022-09-16T07:17:45;12.30;99.90
13426;DHT22;6785;57.918;12.530;2022-09-16T07:20:11;12.40;99.90
13426;DHT22;6785;57.918;12.530;2022-09-16T07:22:38;12.40;99.90
13426;DHT22;6785;57.918;12.530;2022-09-16T07:25:06;12.50;99.90
13426;DHT22;6785;57.918;12.530;2022-09-16T07:27:35;12.60;99.90
13426;DHT22;6785;57.918;12.530;2022-09-16T07:30:11;12.50;99.90
13426;DHT22;6785;57.918;12.530;2022-09-16T07:32:38;12.40;99.90
13426;DHT22;6785;57.918;12.530;2022-09-16T07:35:07;12.40;99.90
13426;DHT22;6785;57.918;12.530;2022-09-16T07:37:52;12.20;99.90
13426;DHT22;6785;57.918;12.530;2022-09-16T07:40:26;12.20;99.90
13426;DHT22;6785;57.918;12.530;2022-09-16T07:42:53;12.10;99.90
13426;DHT22;6785;57.918;12.530;2022-09-16T07:45:20;12.10;99.90
13426;DHT22;6785;57.918;12.530;2022-09-16T07:47:48;12.00;99.90
13426;DHT22;6785;57.918;12.530;2022-09-16T07:50:17;12.00;99.90
13426;DHT22;6785;57.918;12.530;2022-09-16T07:52:43;12.00;99.90
13426;DHT22;6785;57.918;12.530;2022-09-16T07:55:10;11.90;99.90
13426;DHT22;6785;57.918;12.530;2022-09-16T07:57:37;12.00;99.90
13426;DHT22;6785;57.918;12.530;2022-09-16T08:00:05;12.10;99.90
13426;DHT22;6785;57.918;12.530;2022-09-16T08:02:33;12.10;99.90
13426;DHT22;6785;57.918;12.530;2022-09-16T08:04:59;12.10;99.90
13426;DHT22;6785;57.918;12.530;2022-09-16T08:07:28;12.10;99.90
13426;DHT22;6785;57.918;12.530;2022-09-16T08:09:54;12.10;99.90
13426;DHT22;6785;57.918;12.530;2022-09-16T08:12:21;12.10;99.90
13426;DHT22;6785;57.918;12.530;2022-09-16T08:14:48;12.30;99.90
13426;DHT22;6785;57.918;12.530;2022-09-16T08:17:15;12.60;99.90
13426;DHT22;6785;57.918;12.530;2022-09-16T08:19:41;12.70;99.90
13426;DHT22;6785;57.918;12.530;2022-09-16T08:22:08;12.80;99.90
13426;DHT22;6785;57.918;12.530;2022-09-16T08:24:36;12.90;99.90
13426;DHT22;6785;57.918;12.530;2022-09-16T08:27:04;13.10;99.90
13426;DHT22;6785;57.918;12.530;2022-09-16T08:29:30;13.20;99.90
13426;DHT22;6785;57.918;12.530;2022-09-16T08:31:57;13.30;99.90
13426;DHT22;6785;57.918;12.530;2022-09-16T08:34:24;13.30;99.90
13426;DHT22;6785;57.918;12.530;2022-09-16T08:36:51;13.50;99.90
13426;DHT22;6785;57.918;12.530;2022-09-16T08:39:18;13.50;99.90
13426;DHT22;6785;57.918;12.530;2022-09-16T08:42:12;13.60;99.90
13426;DHT22;6785;57.918;12.530;2022-09-16T08:44:51;13.60;99.90
13426;DHT22;6785;57.918;12.530;2022-09-16T08:47:30;13.50;99.90
13426;DHT22;6785;57.918;12.530;2022-09-16T08:50:03;13.60;99.90
13426;DHT22;6785;57.918;12.530;2022-09-16T08:52:32;13.80;99.90
13426;DHT22;6785;57.918;12.530;2022-09-16T08:55:02;13.70;99.90
13426;DHT22;6785;57.918;12.530;2022-09-16T08:57:37;13.80;99.90
13426;DHT22;6785;57.918;12.530;2022-09-16T09:00:10;13.70;99.90
13426;DHT22;6785;57.918;12.530;2022-09-16T09:02:41;13.80;99.90
13426;DHT22;6785;57.918;12.530;2022-09-16T09:05:19;13.90;99.90
13426;DHT22;6785;57.918;12.530;2022-09-16T09:08:03;14.00;99.90
13426;DHT22;6785;57.918;12.530;2022-09-16T09:10:38;13.90;99.90
13426;DHT22;6785;57.918;12.530;2022-09-16T09:13:12;13.90;99.90
13426;DHT22;6785;57.918;12.530;2022-09-16T09:15:46;14.00;99.90
13426;DHT22;6785;57.918;12.530;2022-09-16T09:18:26;14.10;99.90
13426;DHT22;6785;57.918;12.530;2022-09-16T09:21:09;14.30;99.90
13426;DHT22;6785;57.918;12.530;2022-09-16T09:23:47;14.40;99.90
13426;DHT22;6785;57.918;12.530;2022-09-16T09:26:19;14.20;99.90
13426;DHT22;6785;57.918;12.530;2022-09-16T09:29:02;14.40;99.90
13426;DHT22;6785;57.918;12.530;2022-09-16T09:31:38;14.60;99.90
13426;DHT22;6785;57.918;12.530;2022-09-16T09:34:17;14.70;99.90
13426;DHT22;6785;57.918;12.530;2022-09-16T09:36:56;14.50;99.90
13426;DHT22;6785;57.918;12.530;2022-09-16T09:39:49;14.50;99.90
13426;DHT22;6785;57.918;12.530;2022-09-16T09:42:23;14.50;99.90
13426;DHT22;6785;57.918;12.530;2022-09-16T09:44:58;14.30;99.90
13426;DHT22;6785;57.918;12.530;2022-09-16T09:47:30;14.50;99.90
13426;DHT22;6785;57.918;12.530;2022-09-16T09:50:08;14.70;99.90
13426;DHT22;6785;57.918;12.530;2022-09-16T09:52:43;14.90;99.90
13426;DHT22;6785;57.918;12.530;2022-09-16T09:55:14;15.00;99.90
13426;DHT22;6785;57.918;12.530;2022-09-16T10:00:31;14.90;99.90
13426;DHT22;6785;57.918;12.530;2022-09-16T10:03:04;15.10;99.90
13426;DHT22;6785;57.918;12.530;2022-09-16T10:05:31;15.10;99.90
13426;DHT22;6785;57.918;12.530;2022-09-16T10:08:02;15.20;99.90
13426;DHT22;6785;57.918;12.530;2022-09-16T10:10:32;15.40;99.90
13426;DHT22;6785;57.918;12.530;2022-09-16T10:13:06;15.40;99.90
13426;DHT22;6785;57.918;12.530;2022-09-16T10:15:35;15.50;99.90
13426;DHT22;6785;57.918;12.530;2022-09-16T10:18:10;15.40;99.90
13426;DHT22;6785;57.918;12.530;2022-09-16T10:20:40;15.40;99.90
13426;DHT22;6785;57.918;12.530;2022-09-16T10:23:12;15.30;99.90
13426;DHT22;6785;57.918;12.530;2022-09-16T10:25:40;15.20;99.90
13426;DHT22;6785;57.918;12.530;2022-09-16T10:28:19;15.20;99.90
13426;DHT22;6785;57.918;12.530;2022-09-16T10:30:50;15.30;99.90
13426;DHT22;6785;57.918;12.530;2022-09-16T10:33:22;15.50;99.90
13426;DHT22;6785;57.918;12.530;2022-09-16T10:35:55;15.50;99.90
13426;DHT22;6785;57.918;12.530;2022-09-16T10:38:25;15.90;99.90
13426;DHT22;6785;57.918;12.530;2022-09-16T10:40:54;15.90;99.90
13426;DHT22;6785;57.918;12.530;2022-09-16T10:43:23;15.70;99.90
13426;DHT22;6785;57.918;12.530;2022-09-16T10:45:53;15.50;99.90
13426;DHT22;6785;57.918;12.530;2022-09-16T10:48:22;15.50;99.90
13426;DHT22;6785;57.918;12.530;2022-09-16T10:50:54;15.50;99.90
13426;DHT22;6785;57.918;12.530;2022-09-16T10:53:28;15.40;99.90
13426;DHT22;6785;57.918;12.530;2022-09-16T10:55:57;15.20;99.90
13426;DHT22;6785;57.918;12.530;2022-09-16T10:58:25;15.40;99.90
13426;DHT22;6785;57.918;12.530;2022-09-16T11:01:09;15.40;99.90
13426;DHT22;6785;57.918;12.530;2022-09-16T11:03:58;15.60;99.90
13426;DHT22;6785;57.918;12.530;2022-09-16T11:06:38;15.80;99.90
13426;DHT22;6785;57.918;12.530;2022-09-16T11:09:13;15.90;99.90
13426;DHT22;6785;57.918;12.530;2022-09-16T11:11:54;15.90;99.90
13426;DHT22;6785;57.918;12.530;2022-09-16T11:14:37;15.60;99.90
13426;DHT22;6785;57.918;12.530;2022-09-16T11:17:16;15.40;99.90
13426;DHT22;6785;57.918;12.530;2022-09-16T11:19:56;15.40;99.90
13426;DHT22;6785;57.918;12.530;2022-09-16T11:22:29;15.40;99.90
13426;DHT22;6785;57.918;12.530;2022-09-16T11:25:24;15.50;99.90
13426;DHT22;6785;57.918;12.530;2022-09-16T11:27:59;15.30;99.90
13426;DHT22;6785;57.918;12.530;2022-09-16T11:30:35;15.40;99.90
13426;DHT22;6785;57.918;12.530;2022-09-16T11:33:14;15.30;99.90
13426;DHT22;6785;57.918;12.530;2022-09-16T11:36:09;15.20;99.90
13426;DHT22;6785;57.918;12.530;2022-09-16T11:38:47;15.30;99.90
13426;DHT22;6785;57.918;12.530;2022-09-16T11:41:22;15.30;99.90
13426;DHT22;6785;57.918;12.530;2022-09-16T11:44:23;15.30;99.90
13426;DHT22;6785;57.918;12.530;2022-09-16T11:47:01;15.20;99.90
13426;DHT22;6785;57.918;12.530;2022-09-16T11:49:56;15.30;99.90
13426;DHT22;6785;57.918;12.530;2022-09-16T11:52:36;15.30;99.90
13426;DHT22;6785;57.918;12.530;2022-09-16T11:55:23;15.50;99.90
13426;DHT22;6785;57.918;12.530;2022-09-16T11:57:58;15.60;99.90
13426;DHT22;6785;57.918;12.530;2022-09-16T12:00:28;15.70;99.90
13426;DHT22;6785;57.918;12.530;2022-09-16T12:03:01;15.50;99.90
13426;DHT22;6785;57.918;12.530;2022-09-16T12:05:46;15.50;99.90
13426;DHT22;6785;57.918;12.530;2022-09-16T12:08:20;15.50;99.90
13426;DHT22;6785;57.918;12.530;2022-09-16T12:10:50;15.60;99.90
13426;DHT22;6785;57.918;12.530;2022-09-16T12:13:19;15.60;99.90
13426;DHT22;6785;57.918;12.530;2022-09-16T12:15:49;15.50;99.90
13426;DHT22;6785;57.918;12.530;2022-09-16T12:18:19;15.70;99.90
13426;DHT22;6785;57.918;12.530;2022-09-16T12:20:52;15.70;99.90
13426;DHT22;6785;57.918;12.530;2022-09-16T12:23:22;15.80;99.90
13426;DHT22;6785;57.918;12.530;2022-09-16T12:26:00;15.90;99.90
13426;DHT22;6785;57.918;12.530;2022-09-16T12:28:33;16.00;99.90
13426;DHT22;6785;57.918;12.530;2022-09-16T12:31:07;16.10;99.90
13426;DHT22;6785;57.918;12.530;2022-09-16T12:33:42;16.20;99.90
13426;DHT22;6785;57.918;12.530;2022-09-16T12:36:14;16.10;99.90
13426;DHT22;6785;57.918;12.530;2022-09-16T12:38:41;16.00;99.90
13426;DHT22;6785;57.918;12.530;2022-09-16T12:41:18;15.90;99.90
13426;DHT22;6785;57.918;12.530;2022-09-16T12:44:19;15.90;99.90
13426;DHT22;6785;57.918;12.530;2022-09-16T12:47:05;15.80;99.90
13426;DHT22;6785;57.918;12.530;2022-09-16T12:50:00;15.60;99.90
13426;DHT22;6785;57.918;12.530;2022-09-16T12:52:59;15.40;99.90
13426;DHT22;6785;57.918;12.530;2022-09-16T12:55:49;15.40;99.90
13426;DHT22;6785;57.918;12.530;2022-09-16T12:58:32;15.30;99.90
13426;DHT22;6785;57.918;12.530;2022-09-16T13:01:16;15.20;99.90
13426;DHT22;6785;57.918;12.530;2022-09-16T13:03:46;14.90;99.90
13426;DHT22;6785;57.918;12.530;2022-09-16T13:06:23;14.90;99.90
13426;DHT22;6785;57.918;12.530;2022-09-16T13:08:53;14.90;99.90
13426;DHT22;6785;57.918;12.530;2022-09-16T13:11:26;15.10;99.90
13426;DHT22;6785;57.918;12.530;2022-09-16T13:14:19;15.30;99.90
13426;DHT22;6785;57.918;12.530;2022-09-16T13:16:52;15.40;99.90
13426;DHT22;6785;57.918;12.530;2022-09-16T13:19:40;15.50;99.90
13426;DHT22;6785;57.918;12.530;2022-09-16T13:22:20;15.60;99.90
13426;DHT22;6785;57.918;12.530;2022-09-16T13:24:52;15.40;99.90
13426;DHT22;6785;57.918;12.530;2022-09-16T13:27:37;15.40;99.90
13426;DHT22;6785;57.918;12.530;2022-09-16T13:30:12;15.30;99.90
13426;DHT22;6785;57.918;12.530;2022-09-16T13:32:42;15.50;99.90
13426;DHT22;6785;57.918;12.530;2022-09-16T13:35:22;15.70;99.90
13426;DHT22;6785;57.918;12.530;2022-09-16T13:37:50;16.00;99.90
13426;DHT22;6785;57.918;12.530;2022-09-16T13:40:22;16.20;99.90
13426;DHT22;6785;57.918;12.530;2022-09-16T13:42:49;16.30;99.90
13426;DHT22;6785;57.918;12.530;2022-09-16T13:45:30;16.30;99.90
13426;DHT22;6785;57.918;12.530;2022-09-16T13:47:59;16.30;99.90
13426;DHT22;6785;57.918;12.530;2022-09-16T13:50:28;16.30;99.90
13426;DHT22;6785;57.918;12.530;2022-09-16T13:52:55;16.20;99.90
13426;DHT22;6785;57.918;12.530;2022-09-16T13:55:25;16.30;99.90
13426;DHT22;6785;57.918;12.530;2022-09-16T13:57:58;16.40;99.90
13426;DHT22;6785;57.918;12.530;2022-09-16T14:00:30;16.40;99.90
13426;DHT22;6785;57.918;12.530;2022-09-16T14:03:15;16.40;99.90
13426;DHT22;6785;57.918;12.530;2022-09-16T14:06:00;16.50;99.90
13426;DHT22;6785;57.918;12.530;2022-09-16T14:08:36;16.50;99.90
13426;DHT22;6785;57.918;12.530;2022-09-16T14:11:12;16.60;99.90
13426;DHT22;6785;57.918;12.530;2022-09-16T14:13:42;16.70;99.90
13426;DHT22;6785;57.918;12.530;2022-09-16T14:16:14;16.80;99.90
13426;DHT22;6785;57.918;12.530;2022-09-16T14:18:48;16.90;99.90
13426;DHT22;6785;57.918;12.530;2022-09-16T14:21:18;17.00;99.90
13426;DHT22;6785;57.918;12.530;2022-09-16T14:23:46;17.00;99.90
13426;DHT22;6785;57.918;12.530;2022-09-16T14:26:16;16.90;99.90
13426;DHT22;6785;57.918;12.530;2022-09-16T14:28:43;16.70;99.90
13426;DHT22;6785;57.918;12.530;2022-09-16T14:31:14;16.50;99.90
13426;DHT22;6785;57.918;12.530;2022-09-16T14:33:44;16.40;99.90
13426;DHT22;6785;57.918;12.530;2022-09-16T14:36:18;16.40;99.90
13426;DHT22;6785;57.918;12.530;2022-09-16T14:38:59;16.20;99.90
13426;DHT22;6785;57.918;12.530;2022-09-16T14:41:32;16.20;99.90
13426;DHT22;6785;57.918;12.530;2022-09-16T14:44:20;16.10;99.90
13426;DHT22;6785;57.918;12.530;2022-09-16T14:46:50;16.10;99.90
13426;DHT22;6785;57.918;12.530;2022-09-16T14:49:18;16.10;99.90
13426;DHT22;6785;57.918;12.530;2022-09-16T14:51:48;16.10;99.90
13426;DHT22;6785;57.918;12.530;2022-09-16T14:54:19;16.10;99.90
13426;DHT22;6785;57.918;12.530;2022-09-16T14:57:04;15.90;99.90
13426;DHT22;6785;57.918;12.530;2022-09-16T15:02:25;16.00;99.90
13426;DHT22;6785;57.918;12.530;2022-09-16T15:04:55;16.10;99.90
13426;DHT22;6785;57.918;12.530;2022-09-16T15:07:26;16.20;99.90
13426;DHT22;6785;57.918;12.530;2022-09-16T15:09:57;16.40;99.90
13426;DHT22;6785;57.918;12.530;2022-09-16T15:12:29;16.50;99.90
13426;DHT22;6785;57.918;12.530;2022-09-16T15:14:57;16.80;99.90
13426;DHT22;6785;57.918;12.530;2022-09-16T15:17:28;16.90;99.90
13426;DHT22;6785;57.918;12.530;2022-09-16T15:19:57;16.90;99.90
13426;DHT22;6785;57.918;12.530;2022-09-16T15:22:25;16.60;99.90
13426;DHT22;6785;57.918;12.530;2022-09-16T15:24:54;16.30;99.90
13426;DHT22;6785;57.918;12.530;2022-09-16T15:27:24;15.90;99.90
13426;DHT22;6785;57.918;12.530;2022-09-16T15:29:56;15.40;99.90
13426;DHT22;6785;57.918;12.530;2022-09-16T15:32:25;14.90;99.90
13426;DHT22;6785;57.918;12.530;2022-09-16T15:35:27;14.40;99.90
13426;DHT22;6785;57.918;12.530;2022-09-16T15:38:10;14.00;99.90
13426;DHT22;6785;57.918;12.530;2022-09-16T15:40:38;13.80;99.90
13426;DHT22;6785;57.918;12.530;2022-09-16T15:43:13;13.60;99.90
13426;DHT22;6785;57.918;12.530;2022-09-16T15:45:45;13.40;99.90
13426;DHT22;6785;57.918;12.530;2022-09-16T15:48:22;13.30;99.90
13426;DHT22;6785;57.918;12.530;2022-09-16T15:50:52;13.10;99.90
13426;DHT22;6785;57.918;12.530;2022-09-16T15:53:32;13.00;99.90
13426;DHT22;6785;57.918;12.530;2022-09-16T15:56:02;12.90;99.90
13426;DHT22;6785;57.918;12.530;2022-09-16T15:58:36;12.90;99.90
13426;DHT22;6785;57.918;12.530;2022-09-16T16:01:10;12.80;99.90
13426;DHT22;6785;57.918;12.530;2022-09-16T16:03:51;12.70;99.90
13426;DHT22;6785;57.918;12.530;2022-09-16T16:06:20;12.60;99.90
13426;DHT22;6785;57.918;12.530;2022-09-16T16:08:48;12.60;99.90
13426;DHT22;6785;57.918;12.530;2022-09-16T16:11:17;12.50;99.90
13426;DHT22;6785;57.918;12.530;2022-09-16T16:13:44;12.60;99.90
13426;DHT22;6785;57.918;12.530;2022-09-16T16:16:14;12.70;99.90
13426;DHT22;6785;57.918;12.530;2022-09-16T16:18:42;12.70;99.90
13426;DHT22;6785;57.918;12.530;2022-09-16T16:21:11;12.70;99.90
13426;DHT22;6785;57.918;12.530;2022-09-16T16:23:39;12.70;99.90